Time;durP1;ratioP1;P1;durP2;ratioP2;P2;SDS_P1;SDS_P2;PMS_P1;PMS_P2;Temp;Humidity;BMP_temperature;BMP_pressure;BME280_temperature;BME280_humidity;BME280_pressure;Samples;Min_cycle;Max_cycle;Signal;HPM_P1;HPM_P2
2022/06/21 00:02:05;;;;;;;4.30;1.13;;;12.90;99.90;;;;;;5093944;28;20511;-72
2022/06/21 00:04:31;;;;;;;3.42;1.00;;;12.90;99.90;;;;;;5093809;28;20044;-72
2022/06/21 00:07:03;;;;;;;3.08;1.15;;;12.90;99.90;;;;;;5092652;28;20044;-72
2022/06/21 00:09:29;;;;;;;4.67;1.20;;;13.10;99.90;;;;;;5092777;28;20553;-71
2022/06/21 00:11:54;;;;;;;5.28;1.30;;;13.00;99.90;;;;;;5093621;28;20090;-72
2022/06/21 00:14:20;;;;;;;6.35;1.70;;;13.00;99.90;;;;;;5093226;28;20126;-73
2022/06/21 00:16:46;;;;;;;6.20;1.20;;;13.20;99.90;;;;;;5092435;28;20048;-73
2022/06/21 00:19:24;;;;;;;2.03;1.05;;;13.00;99.90;;;;;;5093473;28;20101;-73
2022/06/21 00:21:50;;;;;;;8.18;1.20;;;13.20;99.90;;;;;;5093792;28;20461;-73
2022/06/21 00:24:17;;;;;;;4.90;1.10;;;13.30;99.90;;;;;;5092215;28;20134;-72
2022/06/21 00:26:44;;;;;;;5.15;1.20;;;13.10;99.90;;;;;;5093803;28;20044;-73
2022/06/21 00:29:10;;;;;;;5.47;1.10;;;13.50;99.90;;;;;;5093139;28;20495;-72
2022/06/21 00:31:39;;;;;;;5.07;1.00;;;13.20;99.90;;;;;;5092154;28;20044;-72
2022/06/21 00:34:12;;;;;;;3.63;1.20;;;13.20;99.90;;;;;;5093467;28;20051;-72
2022/06/21 00:36:38;;;;;;;5.28;1.23;;;13.20;99.90;;;;;;5093693;28;20378;-72
2022/06/21 00:39:06;;;;;;;4.20;0.93;;;13.20;99.90;;;;;;5093270;28;20131;-72
2022/06/21 00:41:40;;;;;;;4.53;1.17;;;13.20;99.90;;;;;;5093366;28;20044;-72
2022/06/21 00:44:18;;;;;;;5.15;1.23;;;13.40;99.90;;;;;;5093365;28;20082;-72
2022/06/21 00:46:52;;;;;;;6.40;1.33;;;13.40;99.90;;;;;;5093381;28;20055;-72
2022/06/21 00:49:25;;;;;;;4.78;0.98;;;13.50;99.90;;;;;;5092534;28;20048;-73
2022/06/21 00:51:57;;;;;;;4.65;1.08;;;13.30;99.90;;;;;;5093503;28;20096;-72
2022/06/21 00:54:28;;;;;;;5.15;1.30;;;13.30;99.90;;;;;;5092510;28;20550;-72
2022/06/21 00:57:00;;;;;;;4.03;1.20;;;13.20;99.90;;;;;;5093327;28;20052;-72
2022/06/21 00:59:29;;;;;;;4.87;1.03;;;13.20;99.90;;;;;;5093205;28;20093;-73
2022/06/21 01:02:05;;;;;;;4.47;1.02;;;13.20;99.90;;;;;;5093199;28;20143;-72
2022/06/21 01:04:38;;;;;;;3.47;0.90;;;13.20;99.90;;;;;;5093179;28;20473;-72
2022/06/21 01:07:10;;;;;;;5.43;1.20;;;13.20;99.90;;;;;;5093290;28;20040;-72
2022/06/21 01:09:41;;;;;;;2.67;0.90;;;13.10;99.90;;;;;;5093436;28;20048;-73
2022/06/21 01:12:13;;;;;;;5.78;1.20;;;13.10;99.90;;;;;;5093034;28;20492;-73
2022/06/21 01:14:47;;;;;;;4.47;1.00;;;13.10;99.90;;;;;;5092139;28;20116;-72
2022/06/21 01:17:12;;;;;;;5.15;1.30;;;13.10;99.90;;;;;;5093177;28;20105;-73
2022/06/21 01:19:51;;;;;;;2.55;1.05;;;13.10;99.90;;;;;;5092941;28;20039;-73
2022/06/21 01:22:17;;;;;;;5.65;1.30;;;13.10;99.90;;;;;;5093104;28;20044;-73
2022/06/21 01:25:24;;;;;;;4.75;1.27;;;13.00;99.90;;;;;;5092585;28;20056;-72
2022/06/21 01:27:54;;;;;;;5.88;1.27;;;13.10;99.90;;;;;;5095556;28;20067;-72
2022/06/21 01:30:20;;;;;;;2.95;1.65;;;13.10;99.90;;;;;;5096509;28;20074;-72
2022/06/21 01:32:46;;;;;;;8.23;1.35;;;12.90;99.90;;;;;;5095235;28;20097;-72
2022/06/21 01:35:30;;;;;;;3.90;1.40;;;13.10;99.90;;;;;;5095459;28;20123;-73
2022/06/21 01:37:57;;;;;;;6.60;1.45;;;13.00;99.90;;;;;;5096646;28;20074;-73
2022/06/21 01:40:30;;;;;;;5.93;1.60;;;12.90;99.90;;;;;;5096258;28;20048;-73
2022/06/21 01:43:03;;;;;;;5.57;1.13;;;12.90;99.90;;;;;;5096587;28;20083;-72
2022/06/21 01:45:34;;;;;;;4.97;1.35;;;12.80;99.90;;;;;;5096469;28;20127;-73
2022/06/21 01:48:09;;;;;;;4.78;1.50;;;12.90;99.90;;;;;;5096802;28;20051;-73
2022/06/21 01:50:36;;;;;;;4.88;1.27;;;12.90;99.90;;;;;;5096150;28;20047;-72
2022/06/21 01:53:04;;;;;;;4.88;1.27;;;12.90;99.90;;;;;;5096006;28;20044;-72
2022/06/21 01:55:39;;;;;;;4.68;1.35;;;12.70;99.90;;;;;;5095545;28;20094;-72
2022/06/21 01:58:08;;;;;;;4.55;1.30;;;13.00;99.90;;;;;;5096159;28;20143;-72
2022/06/21 02:00:37;;;;;;;5.65;1.23;;;12.80;99.90;;;;;;5094794;28;20044;-73
2022/06/21 02:03:17;;;;;;;4.22;1.35;;;13.00;99.90;;;;;;5078073;28;20395;-73
2022/06/21 02:05:51;;;;;;;7.22;1.30;;;12.80;99.90;;;;;;5096115;28;20044;-73
2022/06/21 02:08:20;;;;;;;5.60;1.50;;;12.80;99.90;;;;;;5095888;28;20054;-73
2022/06/21 02:10:58;;;;;;;2.65;1.30;;;12.70;99.90;;;;;;5095826;28;20040;-73
2022/06/21 02:13:33;;;;;;;5.90;1.42;;;12.70;99.90;;;;;;5096263;28;20399;-73
2022/06/21 02:16:03;;;;;;;4.93;1.40;;;12.70;99.90;;;;;;5095777;28;20040;-73
2022/06/21 02:18:33;;;;;;;5.22;1.60;;;12.60;99.90;;;;;;5095391;28;20492;-73
2022/06/21 02:21:04;;;;;;;5.80;1.60;;;12.70;99.90;;;;;;5095496;28;20040;-73
2022/06/21 02:23:30;;;;;;;2.58;1.30;;;12.60;99.90;;;;;;5095564;28;20047;-73
2022/06/21 02:25:57;;;;;;;4.32;1.20;;;12.60;99.90;;;;;;5094924;28;20101;-73
2022/06/21 02:28:28;;;;;;;7.63;2.17;;;12.50;99.90;;;;;;5095693;28;20040;-73
2022/06/21 02:30:55;;;;;;;3.53;1.35;;;12.50;99.90;;;;;;5095405;28;20056;-73
2022/06/21 02:33:28;;;;;;;3.25;1.45;;;12.60;99.90;;;;;;5094150;28;20044;-73
2022/06/21 02:35:57;;;;;;;3.10;1.30;;;12.50;99.90;;;;;;5095451;28;20043;-73
2022/06/21 02:38:37;;;;;;;7.05;1.60;;;12.40;99.90;;;;;;5095223;28;20052;-73
2022/06/21 02:41:32;;;;;;;3.65;1.75;;;12.40;99.90;;;;;;5095366;28;20399;-73
2022/06/21 02:44:11;;;;;;;4.18;1.60;;;12.50;99.90;;;;;;5091909;28;20062;-73
2022/06/21 02:46:41;;;;;;;5.88;1.60;;;12.50;99.90;;;;;;5095882;28;20050;-73
2022/06/21 02:49:15;;;;;;;5.35;1.50;;;12.50;99.90;;;;;;5095482;28;20079;-72
2022/06/21 02:51:47;;;;;;;7.63;2.05;;;12.40;99.90;;;;;;5094683;28;20060;-73
2022/06/21 02:54:22;;;;;;;3.75;1.60;;;12.40;99.90;;;;;;5094374;28;20055;-72
2022/06/21 02:57:20;;;;;;;6.28;1.85;;;12.30;99.90;;;;;;5093720;28;20051;-73
2022/06/21 02:59:49;;;;;;;4.75;1.67;;;12.30;99.90;;;;;;5060534;28;20070;-73
2022/06/21 03:02:20;;;;;;;5.00;1.60;;;12.40;99.90;;;;;;5094883;28;20044;-73
2022/06/21 03:04:52;;;;;;;4.85;1.90;;;12.20;99.90;;;;;;5095520;28;20075;-73
2022/06/21 03:07:23;;;;;;;3.77;1.60;;;12.20;99.90;;;;;;5094443;28;20047;-73
2022/06/21 03:09:51;;;;;;;4.88;1.63;;;12.20;99.90;;;;;;5094934;28;20254;-73
2022/06/21 03:12:23;;;;;;;3.30;1.67;;;12.30;99.90;;;;;;5094573;28;20140;-73
2022/06/21 03:14:55;;;;;;;6.65;1.95;;;12.00;99.90;;;;;;5093481;28;20048;-72
2022/06/21 03:17:27;;;;;;;4.18;1.42;;;12.40;99.90;;;;;;5094929;28;20395;-73
2022/06/21 03:19:56;;;;;;;5.22;1.60;;;12.10;99.90;;;;;;5094438;28;20125;-73
2022/06/21 03:22:29;;;;;;;6.22;1.58;;;12.20;99.90;;;;;;5094446;28;20043;-73
2022/06/21 03:24:58;;;;;;;4.00;1.50;;;12.20;99.90;;;;;;5093980;28;20044;-72
2022/06/21 03:27:35;;;;;;;3.88;1.65;;;11.90;99.90;;;;;;5094289;28;20044;-73
2022/06/21 03:30:02;;;;;;;3.53;1.42;;;11.80;99.90;;;;;;5094357;28;20396;-73
2022/06/21 03:32:34;;;;;;;3.33;1.60;;;11.80;99.90;;;;;;5094180;28;20044;-73
2022/06/21 03:35:02;;;;;;;4.00;1.35;;;12.00;99.90;;;;;;5094208;28;20048;-73
2022/06/21 03:37:28;;;;;;;6.60;1.65;;;11.90;99.90;;;;;;5093210;28;20186;-73
2022/06/21 03:42:44;;;;;;;4.07;1.40;;;11.70;99.90;;;;;;5094176;28;20040;-73
2022/06/21 03:45:16;;;;;;;5.28;1.60;;;11.60;99.90;;;;;;5094057;28;20056;-73
2022/06/21 03:48:01;;;;;;;4.88;1.90;;;11.50;99.90;;;;;;5093928;28;20427;-73
2022/06/21 03:50:36;;;;;;;3.33;1.75;;;11.50;99.90;;;;;;5093968;28;20093;-73
2022/06/21 03:53:09;;;;;;;6.57;2.58;;;11.50;99.90;;;;;;5093944;28;20123;-71
2022/06/21 03:55:58;;;;;;;4.35;2.50;;;11.70;99.90;;;;;;5092389;28;20047;-72
2022/06/21 03:58:43;;;;;;;5.40;2.47;;;11.60;99.90;;;;;;5093905;28;20052;-72
2022/06/21 04:01:38;;;;;;;6.75;2.75;;;11.50;99.90;;;;;;5093773;28;20131;-73
2022/06/21 04:04:15;;;;;;;6.43;2.55;;;11.40;99.90;;;;;;5092212;28;20052;-72
2022/06/21 04:06:55;;;;;;;7.22;2.72;;;11.50;99.90;;;;;;5093827;28;20445;-72
2022/06/21 04:10:00;;;;;;;6.07;2.50;;;11.50;99.90;;;;;;5093744;28;20105;-72
2022/06/21 04:12:37;;;;;;;8.25;2.83;;;11.60;99.90;;;;;;5093573;28;20499;-72
2022/06/21 04:15:21;;;;;;;7.57;2.97;;;11.50;99.90;;;;;;5094154;28;20044;-73
2022/06/21 04:18:02;;;;;;;6.35;2.70;;;11.50;99.90;;;;;;5093983;28;20044;-72
2022/06/21 04:20:36;;;;;;;5.82;2.75;;;11.70;99.90;;;;;;5093285;28;20511;-73
2022/06/21 04:23:10;;;;;;;4.18;2.20;;;11.50;99.90;;;;;;5093595;28;20126;-73
2022/06/21 04:25:50;;;;;;;8.18;2.75;;;11.90;99.90;;;;;;5093230;28;20044;-72
2022/06/21 04:28:24;;;;;;;4.85;2.38;;;11.50;99.90;;;;;;5093590;28;20040;-73
2022/06/21 04:31:16;;;;;;;6.13;2.95;;;11.50;99.90;;;;;;5093518;28;20036;-73
2022/06/21 04:33:55;;;;;;;7.40;2.80;;;11.50;99.90;;;;;;5085117;28;20056;-73
2022/06/21 04:36:36;;;;;;;3.72;2.30;;;11.60;99.90;;;;;;5093493;28;20048;-73
2022/06/21 04:39:08;;;;;;;5.18;2.30;;;11.50;99.90;;;;;;5094011;28;20380;-73
2022/06/21 04:41:37;;;;;;;7.00;2.53;;;11.50;99.90;;;;;;5093350;28;20480;-74
2022/06/21 04:44:19;;;;;;;6.05;2.25;;;11.50;99.90;;;;;;5092154;28;20051;-73
2022/06/21 04:46:56;;;;;;;3.42;2.28;;;11.60;99.90;;;;;;5093618;28;20054;-73
2022/06/21 04:49:40;;;;;;;3.47;2.58;;;11.80;99.90;;;;;;5093746;28;20404;-73
2022/06/21 04:52:12;;;;;;;6.65;2.83;;;11.70;99.90;;;;;;5093959;28;20392;-73
2022/06/21 04:54:39;;;;;;;5.40;2.57;;;11.60;99.90;;;;;;5092842;28;20083;-73
2022/06/21 04:57:15;;;;;;;5.80;3.08;;;11.90;99.90;;;;;;5092932;28;20488;-73
2022/06/21 04:59:59;;;;;;;6.20;3.10;;;11.80;99.90;;;;;;5094870;28;20051;-74
2022/06/21 05:02:29;;;;;;;3.47;2.67;;;11.70;99.90;;;;;;5097110;28;20059;-73
2022/06/21 05:05:10;;;;;;;8.50;2.60;;;11.80;99.90;;;;;;5095861;28;20139;-74
2022/06/21 05:07:45;;;;;;;7.65;3.80;;;11.80;99.90;;;;;;5097369;28;20131;-73
2022/06/21 05:10:24;;;;;;;8.60;3.22;;;12.00;99.90;;;;;;5097220;28;20412;-73
2022/06/21 05:12:53;;;;;;;5.88;3.05;;;12.00;99.90;;;;;;5096205;28;20468;-73
2022/06/21 05:15:25;;;;;;;6.03;2.80;;;12.00;99.90;;;;;;5096795;28;20043;-73
2022/06/21 05:17:57;;;;;;;6.18;3.03;;;12.10;99.90;;;;;;5096764;28;20051;-73
2022/06/21 05:20:27;;;;;;;4.13;2.70;;;12.30;99.90;;;;;;5095866;28;20091;-73
2022/06/21 05:22:56;;;;;;;6.20;3.38;;;12.30;99.90;;;;;;5096649;28;20073;-73
2022/06/21 05:25:27;;;;;;;5.40;3.28;;;12.40;99.90;;;;;;5096084;28;20404;-73
2022/06/21 05:28:17;;;;;;;4.68;3.10;;;12.50;99.90;;;;;;5096923;28;20076;-73
2022/06/21 05:31:03;;;;;;;5.28;3.03;;;12.80;99.90;;;;;;5096607;28;20113;-73
2022/06/21 05:33:40;;;;;;;3.85;3.35;;;12.60;99.90;;;;;;5097082;28;20052;-74
2022/06/21 05:36:21;;;;;;;5.03;2.80;;;12.80;99.90;;;;;;5097274;28;20039;-74
2022/06/21 05:38:51;;;;;;;5.68;3.47;;;12.70;99.90;;;;;;5096665;28;20048;-73
2022/06/21 05:41:32;;;;;;;5.82;3.20;;;12.80;99.90;;;;;;5096777;28;20076;-73
2022/06/21 05:44:09;;;;;;;6.72;3.45;;;13.00;99.90;;;;;;5096440;28;20365;-73
2022/06/21 05:46:54;;;;;;;6.40;3.10;;;13.00;99.90;;;;;;5096636;28;20439;-72
2022/06/21 05:49:40;;;;;;;7.25;2.85;;;13.10;99.90;;;;;;5096199;28;20524;-72
2022/06/21 05:52:16;;;;;;;5.22;2.90;;;13.10;99.90;;;;;;5095245;28;20056;-73
2022/06/21 05:54:49;;;;;;;8.15;2.95;;;13.20;99.90;;;;;;5095583;28;20040;-72
2022/06/21 05:57:19;;;;;;;3.22;1.33;;;13.30;99.90;;;;;;5096589;28;20063;-72
2022/06/21 05:59:45;;;;;;;2.92;1.10;;;13.40;99.90;;;;;;5096564;28;20079;-72
2022/06/21 06:02:42;;;;;;;3.05;1.20;;;13.40;99.90;;;;;;5094853;28;20105;-73
2022/06/21 06:05:18;;;;;;;2.42;1.10;;;13.60;99.90;;;;;;5095937;28;20089;-72
2022/06/21 06:07:54;;;;;;;3.65;1.17;;;13.50;99.90;;;;;;5095744;28;20527;-73
2022/06/21 06:10:22;;;;;;;3.53;1.38;;;13.70;99.90;;;;;;5095855;28;20399;-73
2022/06/21 06:12:51;;;;;;;3.05;1.30;;;13.60;99.90;;;;;;5094244;28;20036;-73
2022/06/21 06:15:44;;;;;;;3.72;1.70;;;13.70;99.90;;;;;;5095786;28;20084;-73
2022/06/21 06:18:16;;;;;;;3.50;1.10;;;13.80;99.90;;;;;;5095661;28;20093;-72
2022/06/21 06:20:46;;;;;;;4.63;1.40;;;13.80;99.90;;;;;;5095535;28;20130;-73
2022/06/21 06:23:14;;;;;;;4.22;1.00;;;13.80;99.90;;;;;;5095786;28;20178;-73
2022/06/21 06:25:47;;;;;;;4.03;1.10;;;13.90;99.90;;;;;;5094638;28;20113;-73
2022/06/21 06:28:44;;;;;;;1.83;0.85;;;13.80;99.90;;;;;;5096004;28;20114;-73
2022/06/21 06:31:21;;;;;;;2.47;0.88;;;14.00;99.90;;;;;;5095272;28;20100;-73
2022/06/21 06:33:53;;;;;;;2.90;0.95;;;13.90;99.90;;;;;;5094816;28;20052;-73
2022/06/21 06:36:33;;;;;;;3.60;1.00;;;13.90;99.90;;;;;;5094471;28;20043;-73
2022/06/21 06:39:00;;;;;;;3.70;1.38;;;14.10;99.90;;;;;;5096098;28;20387;-73
2022/06/21 06:41:26;;;;;;;3.28;1.10;;;14.10;99.90;;;;;;5095079;28;20055;-73
2022/06/21 06:44:11;;;;;;;3.20;1.40;;;14.10;99.90;;;;;;5095377;28;20087;-73
2022/06/21 06:46:42;;;;;;;1.73;1.00;;;14.20;99.90;;;;;;5095903;28;20126;-72
2022/06/21 06:49:18;;;;;;;3.65;1.13;;;14.10;99.90;;;;;;5095036;28;20040;-73
2022/06/21 06:52:15;;;;;;;3.30;1.10;;;14.20;99.90;;;;;;5095004;28;20055;-74
2022/06/21 06:54:49;;;;;;;3.20;1.00;;;14.30;99.90;;;;;;5094184;28;20397;-73
2022/06/21 06:57:15;;;;;;;4.50;1.15;;;14.30;99.90;;;;;;5094332;28;20139;-72
2022/06/21 06:59:43;;;;;;;3.28;1.10;;;14.40;99.90;;;;;;5093484;28;20135;-73
2022/06/21 07:02:27;;;;;;;4.55;1.05;;;14.30;99.90;;;;;;5094676;28;20105;-73
2022/06/21 07:05:03;;;;;;;3.88;1.17;;;14.40;99.90;;;;;;5094904;28;20055;-74
2022/06/21 07:08:06;;;;;;;2.55;1.30;;;14.40;99.90;;;;;;5094920;28;20404;-74
2022/06/21 07:10:32;;;;;;;3.08;1.42;;;14.40;99.90;;;;;;5094734;28;20036;-74
2022/06/21 07:12:58;;;;;;;5.18;1.30;;;14.70;99.90;;;;;;5094535;28;20050;-73
2022/06/21 07:15:40;;;;;;;3.00;1.20;;;14.50;99.90;;;;;;5093385;28;20052;-73
2022/06/21 07:18:24;;;;;;;2.72;1.00;;;14.60;99.90;;;;;;5094857;28;20071;-74
2022/06/21 07:20:50;;;;;;;4.65;1.52;;;14.70;99.90;;;;;;5094148;28;20056;-75
2022/06/21 07:23:22;;;;;;;4.65;1.38;;;14.60;99.90;;;;;;5094187;28;20048;-75
2022/06/21 07:26:14;;;;;;;2.97;1.30;;;14.90;99.90;;;;;;5094146;28;20044;-75
2022/06/21 07:28:48;;;;;;;1.98;0.95;;;14.90;99.90;;;;;;5094142;28;20504;-74
2022/06/21 07:31:25;;;;;;;1.90;0.95;;;14.90;99.90;;;;;;5094519;28;20040;-75
2022/06/21 07:34:00;;;;;;;5.35;1.00;;;15.00;99.90;;;;;;5094214;28;20527;-76
2022/06/21 07:36:43;;;;;;;3.00;1.35;;;15.00;99.90;;;;;;5093802;28;20461;-76
2022/06/21 07:39:43;;;;;;;2.45;0.98;;;14.90;99.90;;;;;;5094097;28;20547;-76
2022/06/21 07:42:27;;;;;;;2.33;0.77;;;14.90;99.90;;;;;;5093056;28;20044;-77
2022/06/21 07:44:55;;;;;;;3.90;1.10;;;14.90;99.90;;;;;;5094248;28;20048;-77
2022/06/21 07:47:32;;;;;;;2.30;1.20;;;15.10;99.90;;;;;;5092980;28;20043;-78
2022/06/21 07:50:04;;;;;;;2.85;1.15;;;15.10;99.90;;;;;;5094445;28;20050;-73
2022/06/21 07:52:39;;;;;;;7.43;1.00;;;15.30;99.90;;;;;;5093295;28;20391;-75
2022/06/21 07:55:23;;;;;;;2.08;0.80;;;15.50;99.90;;;;;;5093470;28;20123;-75
2022/06/21 07:58:07;;;;;;;1.50;0.90;;;15.50;99.90;;;;;;5092634;28;20060;-76
2022/06/21 08:09:26;;;;;;;2.00;0.80;;;15.60;99.90;;;;;;5090839;28;20051;-88
2022/06/21 08:11:55;;;;;;;2.08;0.70;;;15.50;99.90;;;;;;5081535;28;20056;-86
2022/06/21 08:14:22;;;;;;;2.95;1.02;;;15.50;99.90;;;;;;5092419;28;20103;-83
2022/06/21 08:16:58;;;;;;;3.75;1.00;;;15.60;99.90;;;;;;5075566;28;20123;-85
2022/06/21 08:19:43;;;;;;;2.33;0.80;;;15.60;99.90;;;;;;5091323;28;20485;-82
2022/06/21 08:22:21;;;;;;;3.28;0.80;;;15.90;99.90;;;;;;5074680;28;20051;-83
2022/06/21 08:25:26;;;;;;;2.05;0.80;;;16.00;99.90;;;;;;5090144;28;20491;-76
2022/06/21 08:28:05;;;;;;;1.83;0.88;;;16.20;99.90;;;;;;5080001;28;20573;-75
2022/06/21 08:30:40;;;;;;;5.30;1.30;;;16.30;99.90;;;;;;5093226;28;20097;-75
2022/06/21 08:33:19;;;;;;;3.70;0.90;;;16.50;99.90;;;;;;5091811;28;20048;-77
2022/06/21 08:35:51;;;;;;;5.63;1.20;;;16.70;99.90;;;;;;5095146;28;20040;-75
2022/06/21 08:38:25;;;;;;;3.67;1.10;;;16.80;99.90;;;;;;5094622;28;20040;-75
2022/06/21 08:41:09;;;;;;;6.25;1.20;;;16.70;99.90;;;;;;5097115;28;20051;-75
2022/06/21 08:43:53;;;;;;;2.08;0.90;;;16.80;99.90;;;;;;5096967;28;20040;-75
2022/06/21 08:46:48;;;;;;;2.00;0.90;;;17.00;99.90;;;;;;5094958;28;20043;-75
2022/06/21 08:49:35;;;;;;;1.00;0.75;;;17.10;99.90;;;;;;5096454;28;20086;-74
2022/06/21 08:52:12;;;;;;;2.67;0.88;;;17.20;99.90;;;;;;5094816;28;20048;-74
2022/06/21 08:55:22;;;;;;;2.90;1.00;;;17.00;99.90;;;;;;5092842;28;20488;-74
2022/06/21 08:57:54;;;;;;;3.00;0.85;;;16.90;99.90;;;;;;5029497;28;20050;-70
2022/06/21 09:00:33;;;;;;;1.90;0.60;;;16.70;99.90;;;;;;5028860;28;20159;-72
2022/06/21 09:03:24;;;;;;;2.33;0.70;;;17.00;99.90;;;;;;5058124;28;20113;-72
2022/06/21 09:06:19;;;;;;;2.42;0.90;;;16.60;99.90;;;;;;5090517;28;20400;-72
2022/06/21 09:09:00;;;;;;;1.33;0.82;;;16.60;99.90;;;;;;5085657;28;20062;-72
2022/06/21 09:11:58;;;;;;;2.90;0.80;;;16.60;99.90;;;;;;5088477;28;20087;-72
2022/06/21 09:14:33;;;;;;;2.00;0.70;;;16.60;99.90;;;;;;5035892;28;20101;-71
2022/06/21 09:17:20;;;;;;;2.25;0.60;;;16.70;99.90;;;;;;5089626;28;20149;-71
2022/06/21 09:19:55;;;;;;;2.35;0.73;;;16.70;99.90;;;;;;5054305;28;20079;-72
2022/06/21 09:22:37;;;;;;;3.05;0.60;;;16.90;99.90;;;;;;5089444;28;20052;-71
2022/06/21 09:25:23;;;;;;;1.13;0.70;;;17.10;99.90;;;;;;5087524;28;20445;-70
2022/06/21 09:27:52;;;;;;;1.42;0.60;;;17.40;99.90;;;;;;5092383;28;20672;-72
2022/06/21 09:30:25;;;;;;;3.53;0.70;;;17.60;99.90;;;;;;5086695;28;20105;-70
2022/06/21 09:33:23;;;;;;;1.92;0.60;;;17.60;99.90;;;;;;5090082;28;20087;-72
2022/06/21 09:36:19;;;;;;;4.03;0.90;;;17.60;99.90;;;;;;5088001;28;20055;-71
2022/06/21 09:39:25;;;;;;;4.72;1.00;;;17.60;99.90;;;;;;5086674;28;20538;-73
2022/06/21 09:42:01;;;;;;;3.22;0.95;;;17.90;99.90;;;;;;5061850;28;20411;-72
2022/06/21 09:44:51;;;;;;;1.65;0.70;;;17.60;99.90;;;;;;5083194;28;20228;-73
2022/06/21 09:47:41;;;;;;;0.88;0.50;;;17.80;99.90;;;;;;5087878;28;20048;-72
2022/06/21 09:50:25;;;;;;;2.67;0.70;;;17.60;99.90;;;;;;5089058;28;20127;-72
2022/06/21 09:53:00;;;;;;;1.85;0.50;;;17.60;99.90;;;;;;5083603;28;20094;-72
2022/06/21 09:55:45;;;;;;;1.45;0.70;;;17.40;99.90;;;;;;5086690;28;20105;-72
2022/06/21 09:58:53;;;;;;;3.30;0.80;;;17.50;99.90;;;;;;5083599;28;20064;-72
2022/06/21 10:01:22;;;;;;;3.53;0.90;;;17.60;99.90;;;;;;5084823;28;20850;-72
2022/06/21 10:04:15;;;;;;;3.60;0.73;;;17.90;99.90;;;;;;5085725;28;20506;-72
2022/06/21 10:07:08;;;;;;;2.53;0.50;;;17.80;99.90;;;;;;5084092;28;20389;-75
2022/06/21 10:09:52;;;;;;;1.80;0.60;;;18.10;99.90;;;;;;5082734;28;20127;-73
2022/06/21 10:12:36;;;;;;;2.45;0.60;;;18.10;99.90;;;;;;5084233;28;20052;-74
2022/06/21 10:15:02;;;;;;;1.38;0.70;;;18.20;99.90;;;;;;5082505;28;20048;-73
2022/06/21 10:17:31;;;;;;;2.17;0.60;;;;;;;;;;5086043;28;20515;-74
2022/06/21 10:20:16;;;;;;;2.60;0.50;;;18.20;99.90;;;;;;5070224;28;20043;-73
2022/06/21 10:23:10;;;;;;;1.95;0.70;;;18.20;99.90;;;;;;5091088;28;20565;-74
2022/06/21 10:26:06;;;;;;;1.73;0.60;;;18.20;99.90;;;;;;5093120;28;20036;-73
2022/06/21 10:28:35;;;;;;;2.65;0.70;;;18.10;99.90;;;;;;5093337;28;20048;-74
2022/06/21 10:31:19;;;;;;;1.92;0.90;;;18.10;99.90;;;;;;5091972;28;20430;-73
2022/06/21 10:34:02;;;;;;;1.35;0.60;;;18.10;99.90;;;;;;5092557;28;20376;-74
2022/06/21 10:36:49;;;;;;;1.05;0.60;;;18.10;99.90;;;;;;5093193;28;20118;-74
2022/06/21 10:39:43;;;;;;;1.40;0.65;;;18.10;99.90;;;;;;5093883;28;20044;-75
2022/06/21 11:02:42;;;;;;;2.35;0.52;;;18.70;99.90;;;;;;5488064;23;20893;-72
2022/06/21 11:05:42;;;;;;;1.52;0.43;;;18.80;99.90;;;;;;4894762;29;20056;-75
2022/06/21 11:08:48;;;;;;;1.05;0.50;;;18.90;99.90;;;;;;4899017;29;20053;-75
2022/06/21 11:11:39;;;;;;;1.85;0.70;;;18.90;99.90;;;;;;4899368;29;20041;-74
2022/06/21 11:14:39;;;;;;;0.85;0.57;;;19.10;99.90;;;;;;4899387;29;20087;-74
2022/06/21 11:17:21;;;;;;;1.65;0.80;;;19.10;99.90;;;;;;4900129;29;20048;-75
2022/06/21 11:20:07;;;;;;;1.40;0.80;;;19.30;99.90;;;;;;4899408;29;20554;-74
2022/06/21 11:22:48;;;;;;;3.08;0.80;;;19.30;99.90;;;;;;4898600;29;20053;-75
2022/06/21 11:25:37;;;;;;;2.03;0.65;;;19.30;99.90;;;;;;4898780;29;20079;-73
2022/06/21 11:28:09;;;;;;;2.30;0.70;;;19.40;99.90;;;;;;4898898;29;20434;-75
2022/06/21 11:31:06;;;;;;;4.25;0.80;;;19.40;99.90;;;;;;4897832;29;20063;-74
2022/06/21 11:33:34;;;;;;;1.67;0.70;;;19.50;99.90;;;;;;4898072;29;20132;-74
2022/06/21 11:36:15;;;;;;;1.30;0.50;;;19.50;99.90;;;;;;4897711;29;20104;-73
2022/06/21 11:38:55;;;;;;;1.92;0.60;;;19.50;99.90;;;;;;4897748;29;20049;-74
2022/06/21 11:42:08;;;;;;;3.13;0.52;;;19.50;99.90;;;;;;4898774;29;20116;-72
2022/06/21 11:44:59;;;;;;;1.55;0.60;;;19.50;99.90;;;;;;4899643;29;20119;-73
2022/06/21 11:47:33;;;;;;;2.45;0.80;;;19.40;99.90;;;;;;4898833;29;20052;-73
2022/06/21 11:50:18;;;;;;;1.50;0.45;;;19.30;99.90;;;;;;4898751;29;20048;-73
2022/06/21 11:53:19;;;;;;;1.20;0.57;;;19.40;99.90;;;;;;4899347;29;20136;-73
2022/06/21 11:56:10;;;;;;;2.45;0.80;;;19.40;99.90;;;;;;4899244;29;20055;-73
2022/06/21 11:58:46;;;;;;;1.23;0.60;;;19.50;99.90;;;;;;4898623;29;20056;-73
2022/06/21 12:01:14;;;;;;;1.00;0.55;;;19.50;99.90;;;;;;4898832;29;20112;-73
2022/06/21 12:03:43;;;;;;;1.48;0.55;;;19.40;99.90;;;;;;4896995;29;20420;-73
2022/06/21 12:06:37;;;;;;;0.95;0.40;;;19.40;99.90;;;;;;4897303;29;20405;-73
2022/06/21 12:09:07;;;;;;;2.38;0.50;;;19.50;99.90;;;;;;4898775;29;20109;-73
2022/06/21 12:11:45;;;;;;;1.85;0.60;;;19.50;99.90;;;;;;4898246;29;20068;-73
2022/06/21 12:14:40;;;;;;;1.75;0.43;;;19.60;99.90;;;;;;4898256;29;20056;-73
2022/06/21 12:17:39;;;;;;;1.77;0.45;;;19.70;99.90;;;;;;4898084;29;20422;-74
2022/06/21 12:20:14;;;;;;;1.52;0.50;;;19.70;99.90;;;;;;4896311;29;20064;-74
2022/06/21 12:22:58;;;;;;;1.73;0.60;;;19.70;99.90;;;;;;4898724;29;20454;-73
2022/06/21 12:25:24;;;;;;;1.63;0.60;;;19.70;99.90;;;;;;4897722;29;20093;-74
2022/06/21 12:27:52;;;;;;;2.88;0.80;;;19.70;99.30;;;;;;4898301;29;20092;-73
2022/06/21 12:30:28;;;;;;;0.90;0.52;;;19.80;98.60;;;;;;4897361;29;20060;-73
2022/06/21 12:33:04;;;;;;;2.67;0.52;;;19.80;98.50;;;;;;4898900;29;20119;-72
2022/06/21 12:35:56;;;;;;;0.88;0.35;;;19.80;98.10;;;;;;4898347;29;20499;-73
2022/06/21 12:38:46;;;;;;;1.45;0.60;;;19.80;99.00;;;;;;4899103;29;20049;-73
2022/06/21 12:41:42;;;;;;;2.15;0.60;;;19.80;99.00;;;;;;4890937;29;20065;-74
2022/06/21 12:44:23;;;;;;;1.08;0.50;;;19.80;98.90;;;;;;4898544;29;20421;-73
2022/06/21 12:47:23;;;;;;;2.70;0.60;;;19.90;99.00;;;;;;4897063;29;20136;-74
2022/06/21 12:50:23;;;;;;;1.38;0.50;;;19.90;99.60;;;;;;4898281;29;20044;-73
2022/06/21 12:52:58;;;;;;;1.27;0.43;;;20.00;99.10;;;;;;4876149;29;20083;-73
2022/06/21 12:55:39;;;;;;;2.10;0.70;;;20.00;99.60;;;;;;4898270;29;20481;-74
2022/06/21 12:58:32;;;;;;;1.15;0.93;;;20.10;97.60;;;;;;4898897;29;20392;-73
2022/06/21 13:01:04;;;;;;;0.90;0.52;;;20.10;98.40;;;;;;4897374;29;20044;-74
2022/06/21 13:03:47;;;;;;;1.47;0.60;;;20.20;98.30;;;;;;4898523;29;20512;-73
2022/06/21 13:06:38;;;;;;;2.22;0.70;;;20.20;97.70;;;;;;4898227;29;20088;-73
2022/06/21 13:09:12;;;;;;;2.60;0.70;;;20.30;97.30;;;;;;4898602;29;20084;-73
2022/06/21 13:12:05;;;;;;;3.08;0.80;;;20.30;97.60;;;;;;4897783;29;20100;-73
2022/06/21 13:14:58;;;;;;;2.45;0.80;;;20.30;98.10;;;;;;4897986;29;20053;-73
2022/06/21 13:17:27;;;;;;;;;;;20.30;98.30;;;;;;4897305;29;20100;-75
2022/06/21 13:20:02;;;;;;;2.08;0.60;;;20.30;96.60;;;;;;4897952;29;20387;-72
2022/06/21 13:22:46;;;;;;;1.27;0.60;;;20.30;97.40;;;;;;4902290;29;20077;-73
2022/06/21 13:25:21;;;;;;;1.60;0.60;;;20.30;96.80;;;;;;4902208;29;20441;-72
2022/06/21 13:27:47;;;;;;;1.55;0.68;;;20.40;96.50;;;;;;4901369;29;20052;-75
2022/06/21 13:30:28;;;;;;;3.13;0.60;;;20.40;96.60;;;;;;4899983;29;20060;-70
2022/06/21 13:33:14;;;;;;;1.52;0.60;;;20.30;96.00;;;;;;4901589;29;20108;-73
2022/06/21 13:35:52;;;;;;;2.80;0.73;;;20.60;96.30;;;;;;4901146;29;20127;-73
2022/06/21 13:38:42;;;;;;;1.90;0.60;;;20.20;96.60;;;;;;4900995;29;20177;-74
2022/06/21 13:44:25;;;;;;;1.75;0.60;;;20.20;96.70;;;;;;4901666;29;20139;-73
2022/06/21 13:47:00;;;;;;;5.10;0.70;;;20.20;96.50;;;;;;4901323;29;20054;-73
2022/06/21 13:49:35;;;;;;;1.58;0.50;;;20.20;95.70;;;;;;4901730;29;20088;-75
2022/06/21 13:52:27;;;;;;;3.08;0.60;;;20.30;96.20;;;;;;4900838;29;20492;-73
2022/06/21 13:55:08;;;;;;;1.03;0.60;;;20.30;95.60;;;;;;4899763;29;20045;-73
2022/06/21 13:57:45;;;;;;;2.78;0.65;;;20.30;96.60;;;;;;4901382;29;20041;-73
2022/06/21 14:00:14;;;;;;;1.90;0.65;;;20.40;97.70;;;;;;4900905;29;20424;-73
2022/06/21 14:03:02;;;;;;;1.00;0.70;;;20.40;97.70;;;;;;4900333;29;20052;-74
2022/06/21 14:05:51;;;;;;;2.28;0.70;;;20.50;97.60;;;;;;4901200;29;20056;-74
2022/06/21 14:08:28;;;;;;;1.77;0.65;;;20.60;97.60;;;;;;4900664;29;20491;-74
2022/06/21 14:11:04;;;;;;;1.08;0.60;;;20.70;97.60;;;;;;4900591;29;20045;-74
2022/06/21 14:13:49;;;;;;;2.70;0.80;;;20.80;95.80;;;;;;4901104;29;20441;-73
2022/06/21 14:16:36;;;;;;;1.13;0.60;;;20.90;96.10;;;;;;4901343;29;20053;-72
2022/06/21 14:19:12;;;;;;;1.35;0.60;;;21.00;95.80;;;;;;4900563;29;20058;-73
2022/06/21 14:21:44;;;;;;;1.77;0.60;;;21.00;95.00;;;;;;4899938;29;20040;-73